Terminal Aerodrome Forecast
Issued by NWS

Home | Current Version | Previous Version | Graphics & Text | Print | Product List | Glossary On
Versions: 1 2 3 4 5 6 7 8 9 10 11 12 13 14 15 16 17 18 19
740
FTUS43 KICT 200520
TAFHUT
TAF
KHUT 200520Z 2006/2106 35010KT P6SM BKN200
     FM200800 35009KT P6SM OVC015
     FM201700 34008KT P6SM BKN040
     FM202000 35007KT P6SM SCT050=

USA.gov is the U.S. government's official web portal to all federal, state and local government web resources and services.